Yancopin, Arkansas
Current Conditions -  °F | °C
As of 8:35 PM on Saturday 25 Oct 2014 (Local Time) from KRNV Reporting Station
Clear Clear  
Wind Chill: 69°   Ceiling: Unl
Heat Index: 69°   Visibility: 10mi
Dew Point: 64°   Wind: 3mph
Humidity: 87%   Direction: 230°SW
Pressure: 30.05"   Gusts: NA
Location:  33.8911°N, 91.2569°W
Report Text: KRNV 260135Z AUTO 23003KT 10SM CLR 20/18 A3005 RMK AO2 T02030180
Loading
Personal Weather Stations






























Interactive Weather Map
Tropical Storm Tracking
New forecast layout! Learn more

10-Day Weather Forecast

Advertisements
Track Severe Weather on mobile